sensor_id;sensor_type;location;lat;lon;timestamp;pressure;altitude;pressure_sealevel;temperature;humidity
79639;BME280;69114;49.108;8.280;2023-04-26T00:01:27;100664.31;;;4.03;96.06
79639;BME280;69114;49.108;8.280;2023-04-26T00:03:53;100653.81;;;4.00;95.61
79639;BME280;69114;49.108;8.280;2023-04-26T00:06:20;100660.94;;;3.96;96.01
79639;BME280;69114;49.108;8.280;2023-04-26T00:08:45;100650.69;;;3.92;96.62
79639;BME280;69114;49.108;8.280;2023-04-26T00:11:11;100652.31;;;3.88;97.17
79639;BME280;69114;49.108;8.280;2023-04-26T00:13:36;100657.50;;;3.84;96.40
79639;BME280;69114;49.108;8.280;2023-04-26T00:16:03;100657.25;;;3.85;97.16
79639;BME280;69114;49.108;8.280;2023-04-26T00:18:29;100651.31;;;3.72;96.41
79639;BME280;69114;49.108;8.280;2023-04-26T00:20:55;100658.31;;;3.84;95.49
79639;BME280;69114;49.108;8.280;2023-04-26T00:23:21;100661.41;;;3.88;96.17
79639;BME280;69114;49.108;8.280;2023-04-26T00:25:46;100663.59;;;3.86;95.77
79639;BME280;69114;49.108;8.280;2023-04-26T00:28:12;100663.59;;;3.86;96.24
79639;BME280;69114;49.108;8.280;2023-04-26T00:30:37;100658.53;;;3.78;96.51
79639;BME280;69114;49.108;8.280;2023-04-26T00:33:06;100650.59;;;3.81;96.26
79639;BME280;69114;49.108;8.280;2023-04-26T00:35:31;100658.16;;;3.69;96.18
79639;BME280;69114;49.108;8.280;2023-04-26T00:37:57;100650.44;;;3.66;96.49
79639;BME280;69114;49.108;8.280;2023-04-26T00:40:22;100650.38;;;3.61;96.36
79639;BME280;69114;49.108;8.280;2023-04-26T00:42:47;100649.25;;;3.57;95.59
79639;BME280;69114;49.108;8.280;2023-04-26T00:45:13;100646.72;;;3.55;95.88
79639;BME280;69114;49.108;8.280;2023-04-26T00:47:39;100646.44;;;3.52;96.25
79639;BME280;69114;49.108;8.280;2023-04-26T00:50:06;100649.41;;;3.50;96.41
79639;BME280;69114;49.108;8.280;2023-04-26T00:52:31;100657.28;;;3.42;96.06
79639;BME280;69114;49.108;8.280;2023-04-26T00:54:57;100657.94;;;3.49;96.25
79639;BME280;69114;49.108;8.280;2023-04-26T00:57:22;100656.47;;;3.41;95.42
79639;BME280;69114;49.108;8.280;2023-04-26T00:59:48;100645.94;;;3.33;95.05
79639;BME280;69114;49.108;8.280;2023-04-26T01:02:13;100652.69;;;3.25;95.18
79639;BME280;69114;49.108;8.280;2023-04-26T01:04:40;100660.56;;;3.17;94.16
79639;BME280;69114;49.108;8.280;2023-04-26T01:07:06;100656.41;;;3.14;94.77
79639;BME280;69114;49.108;8.280;2023-04-26T01:09:32;100653.34;;;3.11;94.50
79639;BME280;69114;49.108;8.280;2023-04-26T01:11:58;100652.25;;;3.12;94.02
79639;BME280;69114;49.108;8.280;2023-04-26T01:14:25;100653.41;;;3.16;94.63
79639;BME280;69114;49.108;8.280;2023-04-26T01:16:51;100652.75;;;3.08;95.35
79639;BME280;69114;49.108;8.280;2023-04-26T01:19:17;100651.28;;;3.01;94.33
79639;BME280;69114;49.108;8.280;2023-04-26T01:21:42;100654.13;;;2.89;95.36
79639;BME280;69114;49.108;8.280;2023-04-26T01:24:08;100654.59;;;2.81;94.93
79639;BME280;69114;49.108;8.280;2023-04-26T01:26:34;100647.31;;;2.75;95.91
79639;BME280;69114;49.108;8.280;2023-04-26T01:28:59;100642.78;;;2.64;96.04
79639;BME280;69114;49.108;8.280;2023-04-26T01:31:25;100650.94;;;2.59;96.19
79639;BME280;69114;49.108;8.280;2023-04-26T01:33:51;100643.44;;;2.54;95.55
79639;BME280;69114;49.108;8.280;2023-04-26T01:36:16;100645.38;;;2.53;95.61
79639;BME280;69114;49.108;8.280;2023-04-26T01:38:41;100642.13;;;2.56;96.28
79639;BME280;69114;49.108;8.280;2023-04-26T01:41:07;100641.44;;;2.49;95.54
79639;BME280;69114;49.108;8.280;2023-04-26T01:43:32;100648.13;;;2.37;95.92
79639;BME280;69114;49.108;8.280;2023-04-26T01:45:57;100654.06;;;2.28;95.69
79639;BME280;69114;49.108;8.280;2023-04-26T01:48:23;100653.22;;;2.28;96.69
79639;BME280;69114;49.108;8.280;2023-04-26T01:50:48;100648.22;;;2.25;95.82
79639;BME280;69114;49.108;8.280;2023-04-26T01:53:13;100650.69;;;2.26;95.42
79639;BME280;69114;49.108;8.280;2023-04-26T01:55:38;100656.94;;;2.22;95.01
79639;BME280;69114;49.108;8.280;2023-04-26T01:58:04;100657.53;;;2.24;95.02
79639;BME280;69114;49.108;8.280;2023-04-26T02:00:29;100658.19;;;2.31;96.42
79639;BME280;69114;49.108;8.280;2023-04-26T02:02:55;100660.22;;;2.19;95.09
79639;BME280;69114;49.108;8.280;2023-04-26T02:05:21;100654.53;;;2.25;94.48
79639;BME280;69114;49.108;8.280;2023-04-26T02:07:46;100649.88;;;2.26;93.88
79639;BME280;69114;49.108;8.280;2023-04-26T02:10:12;100650.97;;;2.25;93.44
79639;BME280;69114;49.108;8.280;2023-04-26T02:12:38;100656.38;;;2.20;94.23
79639;BME280;69114;49.108;8.280;2023-04-26T02:15:03;100652.72;;;2.14;94.18
79639;BME280;69114;49.108;8.280;2023-04-26T02:17:29;100659.44;;;2.07;95.46
79639;BME280;69114;49.108;8.280;2023-04-26T02:19:54;100655.59;;;2.08;95.44
79639;BME280;69114;49.108;8.280;2023-04-26T02:22:22;100659.00;;;1.98;95.14
79639;BME280;69114;49.108;8.280;2023-04-26T02:24:49;100655.44;;;1.97;94.33
79639;BME280;69114;49.108;8.280;2023-04-26T02:27:15;100660.09;;;1.97;95.17
79639;BME280;69114;49.108;8.280;2023-04-26T02:29:40;100652.03;;;1.90;94.67
79639;BME280;69114;49.108;8.280;2023-04-26T02:32:06;100659.41;;;1.90;94.16
79639;BME280;69114;49.108;8.280;2023-04-26T02:34:31;100653.25;;;1.83;94.65
79639;BME280;69114;49.108;8.280;2023-04-26T02:36:57;100660.59;;;1.65;94.77
79639;BME280;69114;49.108;8.280;2023-04-26T02:39:22;100659.81;;;1.53;94.89
79639;BME280;69114;49.108;8.280;2023-04-26T02:41:47;100657.56;;;1.50;95.72
79639;BME280;69114;49.108;8.280;2023-04-26T02:44:13;100652.59;;;1.35;94.99
79639;BME280;69114;49.108;8.280;2023-04-26T02:46:38;100657.38;;;1.28;95.34
79639;BME280;69114;49.108;8.280;2023-04-26T02:49:04;100655.44;;;1.40;95.08
79639;BME280;69114;49.108;8.280;2023-04-26T02:51:30;100657.25;;;1.35;95.27
79639;BME280;69114;49.108;8.280;2023-04-26T02:53:56;100663.56;;;1.35;95.41
79639;BME280;69114;49.108;8.280;2023-04-26T02:56:22;100661.56;;;1.31;96.26
79639;BME280;69114;49.108;8.280;2023-04-26T02:58:47;100668.59;;;1.26;95.36
79639;BME280;69114;49.108;8.280;2023-04-26T03:01:12;100673.53;;;1.13;95.78
79639;BME280;69114;49.108;8.280;2023-04-26T03:03:38;100669.47;;;1.03;96.07
79639;BME280;69114;49.108;8.280;2023-04-26T03:06:04;100666.03;;;1.08;96.51
79639;BME280;69114;49.108;8.280;2023-04-26T03:08:29;100664.09;;;1.09;95.33
79639;BME280;69114;49.108;8.280;2023-04-26T03:10:55;100665.06;;;1.14;96.65
79639;BME280;69114;49.108;8.280;2023-04-26T03:13:23;100662.56;;;1.13;95.18
79639;BME280;69114;49.108;8.280;2023-04-26T03:15:49;100660.88;;;1.12;95.60
79639;BME280;69114;49.108;8.280;2023-04-26T03:18:16;100669.13;;;1.12;95.38
79639;BME280;69114;49.108;8.280;2023-04-26T03:20:41;100658.88;;;1.07;95.18
79639;BME280;69114;49.108;8.280;2023-04-26T03:23:07;100656.97;;;1.08;96.05
79639;BME280;69114;49.108;8.280;2023-04-26T03:25:32;100653.84;;;1.04;95.03
79639;BME280;69114;49.108;8.280;2023-04-26T03:27:58;100662.34;;;1.02;95.24
79639;BME280;69114;49.108;8.280;2023-04-26T03:30:23;100660.22;;;1.05;95.62
79639;BME280;69114;49.108;8.280;2023-04-26T03:32:49;100666.63;;;0.98;94.57
79639;BME280;69114;49.108;8.280;2023-04-26T03:35:14;100661.03;;;0.93;95.07
79639;BME280;69114;49.108;8.280;2023-04-26T03:37:39;100666.28;;;0.95;95.45
79639;BME280;69114;49.108;8.280;2023-04-26T03:40:08;100672.13;;;0.98;95.76
79639;BME280;69114;49.108;8.280;2023-04-26T03:42:34;100669.53;;;0.92;94.81
79639;BME280;69114;49.108;8.280;2023-04-26T03:45:00;100673.84;;;0.76;94.52
79639;BME280;69114;49.108;8.280;2023-04-26T03:47:28;100669.06;;;0.71;95.33
79639;BME280;69114;49.108;8.280;2023-04-26T03:49:53;100677.13;;;0.66;95.29
79639;BME280;69114;49.108;8.280;2023-04-26T03:52:19;100674.19;;;0.68;95.50
79639;BME280;69114;49.108;8.280;2023-04-26T03:54:44;100664.63;;;0.70;95.05
79639;BME280;69114;49.108;8.280;2023-04-26T03:57:09;100656.66;;;0.69;94.87
79639;BME280;69114;49.108;8.280;2023-04-26T03:59:35;100655.81;;;0.57;95.26
79639;BME280;69114;49.108;8.280;2023-04-26T04:02:00;100656.53;;;0.52;95.53
79639;BME280;69114;49.108;8.280;2023-04-26T04:04:26;100662.59;;;0.66;95.48
79639;BME280;69114;49.108;8.280;2023-04-26T04:06:51;100652.84;;;0.70;95.82
79639;BME280;69114;49.108;8.280;2023-04-26T04:09:16;100655.94;;;0.62;94.81
79639;BME280;69114;49.108;8.280;2023-04-26T04:11:42;100654.75;;;0.58;95.18
79639;BME280;69114;49.108;8.280;2023-04-26T04:14:07;100664.91;;;0.57;94.89
79639;BME280;69114;49.108;8.280;2023-04-26T04:16:32;100667.97;;;0.49;94.98
79639;BME280;69114;49.108;8.280;2023-04-26T04:18:58;100669.16;;;0.65;95.77
79639;BME280;69114;49.108;8.280;2023-04-26T04:21:23;100661.16;;;0.75;93.63
79639;BME280;69114;49.108;8.280;2023-04-26T04:23:48;100662.97;;;0.81;93.77
79639;BME280;69114;49.108;8.280;2023-04-26T04:26:14;100663.81;;;0.70;93.86
79639;BME280;69114;49.108;8.280;2023-04-26T04:28:40;100656.28;;;0.65;95.31
79639;BME280;69114;49.108;8.280;2023-04-26T04:31:06;100659.50;;;0.74;94.48
79639;BME280;69114;49.108;8.280;2023-04-26T04:33:34;100664.03;;;0.80;93.34
79639;BME280;69114;49.108;8.280;2023-04-26T04:35:59;100663.44;;;0.78;93.33
79639;BME280;69114;49.108;8.280;2023-04-26T04:38:25;100665.34;;;0.77;94.25
79639;BME280;69114;49.108;8.280;2023-04-26T04:40:50;100667.25;;;0.65;94.25
79639;BME280;69114;49.108;8.280;2023-04-26T04:43:16;100677.03;;;0.49;94.16
79639;BME280;69114;49.108;8.280;2023-04-26T04:45:42;100678.22;;;0.42;94.44
79639;BME280;69114;49.108;8.280;2023-04-26T04:48:08;100681.81;;;0.54;94.19
79639;BME280;69114;49.108;8.280;2023-04-26T04:50:35;100682.28;;;0.63;93.76
79639;BME280;69114;49.108;8.280;2023-04-26T04:53:01;100685.25;;;0.73;93.14
79639;BME280;69114;49.108;8.280;2023-04-26T04:55:27;100680.97;;;0.77;93.74
79639;BME280;69114;49.108;8.280;2023-04-26T04:57:53;100680.47;;;0.80;93.43
79639;BME280;69114;49.108;8.280;2023-04-26T05:00:18;100684.41;;;0.84;93.87
79639;BME280;69114;49.108;8.280;2023-04-26T05:02:44;100693.84;;;0.88;95.01
79639;BME280;69114;49.108;8.280;2023-04-26T05:05:10;100700.03;;;0.95;94.98
79639;BME280;69114;49.108;8.280;2023-04-26T05:07:35;100701.94;;;0.95;94.85
79639;BME280;69114;49.108;8.280;2023-04-26T05:10:01;100697.31;;;0.95;94.85
79639;BME280;69114;49.108;8.280;2023-04-26T05:12:27;100697.38;;;1.12;93.57
79639;BME280;69114;49.108;8.280;2023-04-26T05:14:52;100697.84;;;1.21;92.73
79639;BME280;69114;49.108;8.280;2023-04-26T05:17:18;100694.63;;;1.24;93.50
79639;BME280;69114;49.108;8.280;2023-04-26T05:19:43;100702.00;;;1.35;93.82
79639;BME280;69114;49.108;8.280;2023-04-26T05:22:08;100704.84;;;1.40;93.55
79639;BME280;69114;49.108;8.280;2023-04-26T05:24:33;100714.63;;;1.36;93.41
79639;BME280;69114;49.108;8.280;2023-04-26T05:26:59;100715.25;;;1.38;94.46
79639;BME280;69114;49.108;8.280;2023-04-26T05:29:28;100710.59;;;1.27;95.13
79639;BME280;69114;49.108;8.280;2023-04-26T05:31:54;100712.97;;;1.35;95.01
79639;BME280;69114;49.108;8.280;2023-04-26T05:34:19;100710.59;;;1.39;94.88
79639;BME280;69114;49.108;8.280;2023-04-26T05:36:45;100718.31;;;1.53;94.38
79639;BME280;69114;49.108;8.280;2023-04-26T05:39:10;100718.34;;;1.70;94.61
79639;BME280;69114;49.108;8.280;2023-04-26T05:41:36;100713.41;;;1.84;93.85
79639;BME280;69114;49.108;8.280;2023-04-26T05:44:02;100714.47;;;1.95;94.04
79639;BME280;69114;49.108;8.280;2023-04-26T05:46:27;100725.63;;;2.05;93.90
79639;BME280;69114;49.108;8.280;2023-04-26T05:48:53;100729.78;;;2.08;93.37
79639;BME280;69114;49.108;8.280;2023-04-26T05:51:19;100727.97;;;2.13;93.30
79639;BME280;69114;49.108;8.280;2023-04-26T05:53:45;100727.31;;;2.23;93.88
79639;BME280;69114;49.108;8.280;2023-04-26T05:56:10;100734.69;;;2.34;93.75
79639;BME280;69114;49.108;8.280;2023-04-26T05:58:35;100742.00;;;2.28;92.77
79639;BME280;69114;49.108;8.280;2023-04-26T06:01:01;100742.66;;;2.36;92.92
79639;BME280;69114;49.108;8.280;2023-04-26T06:03:26;100733.69;;;2.40;92.30
79639;BME280;69114;49.108;8.280;2023-04-26T06:05:51;100744.34;;;2.53;92.75
79639;BME280;69114;49.108;8.280;2023-04-26T06:08:17;100740.59;;;2.60;92.42
79639;BME280;69114;49.108;8.280;2023-04-26T06:10:42;100755.88;;;2.67;92.46
79639;BME280;69114;49.108;8.280;2023-04-26T06:13:07;100745.38;;;2.81;91.15
79639;BME280;69114;49.108;8.280;2023-04-26T06:15:33;100743.78;;;2.85;91.26
79639;BME280;69114;49.108;8.280;2023-04-26T06:17:58;100753.38;;;2.99;91.06
79639;BME280;69114;49.108;8.280;2023-04-26T06:20:24;100753.59;;;3.15;91.66
79639;BME280;69114;49.108;8.280;2023-04-26T06:22:50;100760.97;;;3.31;90.42
79639;BME280;69114;49.108;8.280;2023-04-26T06:25:15;100750.50;;;3.50;88.73
79639;BME280;69114;49.108;8.280;2023-04-26T06:27:41;100745.16;;;3.65;88.15
79639;BME280;69114;49.108;8.280;2023-04-26T06:30:07;100748.31;;;3.74;87.31
79639;BME280;69114;49.108;8.280;2023-04-26T06:32:32;100743.75;;;3.84;89.72
79639;BME280;69114;49.108;8.280;2023-04-26T06:35:00;100735.84;;;3.93;88.58
79639;BME280;69114;49.108;8.280;2023-04-26T06:37:26;100741.66;;;4.19;89.31
79639;BME280;69114;49.108;8.280;2023-04-26T06:39:52;100743.47;;;4.35;85.81
79639;BME280;69114;49.108;8.280;2023-04-26T06:42:17;100746.59;;;4.44;86.76
79639;BME280;69114;49.108;8.280;2023-04-26T06:44:42;100744.25;;;4.57;85.69
79639;BME280;69114;49.108;8.280;2023-04-26T06:47:08;100741.81;;;4.61;85.13
79639;BME280;69114;49.108;8.280;2023-04-26T06:49:34;100736.59;;;4.70;83.18
79639;BME280;69114;49.108;8.280;2023-04-26T06:52:00;100735.50;;;4.66;82.92
79639;BME280;69114;49.108;8.280;2023-04-26T06:54:29;100744.06;;;4.69;82.54
79639;BME280;69114;49.108;8.280;2023-04-26T06:56:55;100747.44;;;4.76;83.47
79639;BME280;69114;49.108;8.280;2023-04-26T07:01:55;100735.06;;;4.84;81.82
79639;BME280;69114;49.108;8.280;2023-04-26T07:04:20;100728.53;;;4.95;82.48
79639;BME280;69114;49.108;8.280;2023-04-26T07:06:46;100723.72;;;5.18;83.85
79639;BME280;69114;49.108;8.280;2023-04-26T07:09:11;100728.50;;;5.32;83.79
79639;BME280;69114;49.108;8.280;2023-04-26T07:11:37;100720.78;;;5.39;81.12
79639;BME280;69114;49.108;8.280;2023-04-26T07:14:03;100728.91;;;5.61;78.34
79639;BME280;69114;49.108;8.280;2023-04-26T07:16:29;100735.06;;;5.84;78.54
79639;BME280;69114;49.108;8.280;2023-04-26T07:18:54;100731.78;;;5.87;80.25
79639;BME280;69114;49.108;8.280;2023-04-26T07:21:23;100726.88;;;5.99;80.31
79639;BME280;69114;49.108;8.280;2023-04-26T07:23:52;100724.94;;;6.00;78.17
79639;BME280;69114;49.108;8.280;2023-04-26T07:26:17;100724.69;;;6.16;79.76
79639;BME280;69114;49.108;8.280;2023-04-26T07:28:43;100726.13;;;6.34;76.89
79639;BME280;69114;49.108;8.280;2023-04-26T07:31:08;100733.06;;;6.37;76.31
79639;BME280;69114;49.108;8.280;2023-04-26T07:33:33;100732.22;;;6.52;77.75
79639;BME280;69114;49.108;8.280;2023-04-26T07:35:59;100731.41;;;6.56;76.02
79639;BME280;69114;49.108;8.280;2023-04-26T07:38:26;100727.53;;;6.47;73.79
79639;BME280;69114;49.108;8.280;2023-04-26T07:40:51;100732.53;;;6.55;77.91
79639;BME280;69114;49.108;8.280;2023-04-26T07:43:20;100723.94;;;6.67;77.65
79639;BME280;69114;49.108;8.280;2023-04-26T07:45:45;100736.94;;;6.72;76.11
79639;BME280;69114;49.108;8.280;2023-04-26T07:48:11;100729.19;;;6.79;72.36
79639;BME280;69114;49.108;8.280;2023-04-26T07:50:36;100737.75;;;6.92;76.20
79639;BME280;69114;49.108;8.280;2023-04-26T07:53:02;100735.53;;;7.15;77.02
79639;BME280;69114;49.108;8.280;2023-04-26T07:55:27;100734.44;;;6.96;72.26
79639;BME280;69114;49.108;8.280;2023-04-26T07:57:53;100736.38;;;7.00;75.49
79639;BME280;69114;49.108;8.280;2023-04-26T08:00:18;100730.28;;;7.13;75.32
79639;BME280;69114;49.108;8.280;2023-04-26T08:02:44;100723.88;;;7.28;74.05
79639;BME280;69114;49.108;8.280;2023-04-26T08:05:13;100724.69;;;7.34;69.83
79639;BME280;69114;49.108;8.280;2023-04-26T08:07:39;100736.53;;;7.60;72.53
79639;BME280;69114;49.108;8.280;2023-04-26T08:10:05;100733.66;;;7.80;73.10
79639;BME280;69114;49.108;8.280;2023-04-26T08:12:32;100719.94;;;8.09;70.85
79639;BME280;69114;49.108;8.280;2023-04-26T08:14:59;100724.78;;;8.33;69.05
79639;BME280;69114;49.108;8.280;2023-04-26T08:17:25;100734.72;;;8.44;71.30
79639;BME280;69114;49.108;8.280;2023-04-26T08:19:50;100728.72;;;8.27;68.81
79639;BME280;69114;49.108;8.280;2023-04-26T08:22:16;100718.13;;;8.29;66.92
79639;BME280;69114;49.108;8.280;2023-04-26T08:24:46;100720.31;;;8.42;68.84
79639;BME280;69114;49.108;8.280;2023-04-26T08:27:11;100727.34;;;8.63;68.33
79639;BME280;69114;49.108;8.280;2023-04-26T08:29:37;100726.59;;;8.87;66.47
79639;BME280;69114;49.108;8.280;2023-04-26T08:32:02;100730.47;;;8.91;64.32
79639;BME280;69114;49.108;8.280;2023-04-26T08:34:27;100728.06;;;9.37;65.42
79639;BME280;69114;49.108;8.280;2023-04-26T08:36:53;100724.91;;;9.44;65.34
79639;BME280;69114;49.108;8.280;2023-04-26T08:39:18;100723.09;;;9.58;65.58
79639;BME280;69114;49.108;8.280;2023-04-26T08:41:47;100721.88;;;9.69;63.95
79639;BME280;69114;49.108;8.280;2023-04-26T08:44:13;100711.81;;;9.73;62.16
79639;BME280;69114;49.108;8.280;2023-04-26T08:47:03;100709.25;;;9.96;58.57
79639;BME280;69114;49.108;8.280;2023-04-26T08:49:39;100707.66;;;10.33;57.91
79639;BME280;69114;49.108;8.280;2023-04-26T08:52:09;100700.88;;;10.39;60.54
79639;BME280;69114;49.108;8.280;2023-04-26T08:54:39;100699.44;;;10.04;59.73
79639;BME280;69114;49.108;8.280;2023-04-26T08:57:06;100689.88;;;10.10;56.80
79639;BME280;69114;49.108;8.280;2023-04-26T08:59:37;100697.63;;;9.94;60.47
79639;BME280;69114;49.108;8.280;2023-04-26T09:02:06;100699.75;;;10.02;60.88
79639;BME280;69114;49.108;8.280;2023-04-26T09:04:34;100699.91;;;9.87;60.78
79639;BME280;69114;49.108;8.280;2023-04-26T09:07:02;100697.88;;;10.16;57.82
79639;BME280;69114;49.108;8.280;2023-04-26T09:09:35;100699.13;;;10.05;53.18
79639;BME280;69114;49.108;8.280;2023-04-26T09:12:06;100704.53;;;10.15;58.18
79639;BME280;69114;49.108;8.280;2023-04-26T09:14:31;100695.59;;;10.56;57.32
79639;BME280;69114;49.108;8.280;2023-04-26T09:16:57;100696.13;;;10.58;55.12
79639;BME280;69114;49.108;8.280;2023-04-26T09:19:39;100696.47;;;10.70;56.59
79639;BME280;69114;49.108;8.280;2023-04-26T09:22:08;100687.34;;;10.51;57.09
79639;BME280;69114;49.108;8.280;2023-04-26T09:24:45;100689.31;;;10.32;57.81
79639;BME280;69114;49.108;8.280;2023-04-26T09:27:12;100688.84;;;10.43;51.75
79639;BME280;69114;49.108;8.280;2023-04-26T09:29:37;100683.47;;;10.09;50.65
79639;BME280;69114;49.108;8.280;2023-04-26T09:32:02;100686.66;;;10.21;53.21
79639;BME280;69114;49.108;8.280;2023-04-26T09:34:28;100685.41;;;10.33;54.71
79639;BME280;69114;49.108;8.280;2023-04-26T09:36:56;100681.38;;;10.20;55.69
79639;BME280;69114;49.108;8.280;2023-04-26T09:39:35;100686.78;;;10.49;55.27
79639;BME280;69114;49.108;8.280;2023-04-26T09:42:08;100685.47;;;10.79;51.29
79639;BME280;69114;49.108;8.280;2023-04-26T09:44:35;100690.31;;;10.73;50.03
79639;BME280;69114;49.108;8.280;2023-04-26T09:47:06;100690.03;;;10.89;49.33
79639;BME280;69114;49.108;8.280;2023-04-26T09:49:49;100688.16;;;11.31;48.67
79639;BME280;69114;49.108;8.280;2023-04-26T09:52:16;100695.38;;;11.87;48.34
79639;BME280;69114;49.108;8.280;2023-04-26T09:54:47;100692.06;;;11.43;48.67
79639;BME280;69114;49.108;8.280;2023-04-26T09:57:15;100691.16;;;11.20;47.26
79639;BME280;69114;49.108;8.280;2023-04-26T09:59:45;100699.88;;;11.88;50.95
79639;BME280;69114;49.108;8.280;2023-04-26T10:02:26;100684.75;;;11.75;45.63
79639;BME280;69114;49.108;8.280;2023-04-26T10:04:54;100674.81;;;12.33;49.04
79639;BME280;69114;49.108;8.280;2023-04-26T10:07:21;100672.53;;;12.57;46.16
79639;BME280;69114;49.108;8.280;2023-04-26T10:09:47;100664.63;;;12.73;47.14
79639;BME280;69114;49.108;8.280;2023-04-26T10:12:17;100664.97;;;13.02;45.84
79639;BME280;69114;49.108;8.280;2023-04-26T10:14:44;100664.38;;;12.02;43.67
79639;BME280;69114;49.108;8.280;2023-04-26T10:17:11;100662.50;;;12.11;43.72
79639;BME280;69114;49.108;8.280;2023-04-26T10:19:40;100657.38;;;11.36;42.49
79639;BME280;69114;49.108;8.280;2023-04-26T10:22:12;100664.78;;;11.68;44.07
79639;BME280;69114;49.108;8.280;2023-04-26T10:24:38;100667.59;;;12.32;46.06
79639;BME280;69114;49.108;8.280;2023-04-26T10:27:05;100662.28;;;12.44;47.46
79639;BME280;69114;49.108;8.280;2023-04-26T10:32:17;100666.41;;;13.00;44.94
79639;BME280;69114;49.108;8.280;2023-04-26T10:34:44;100667.34;;;13.18;43.87
79639;BME280;69114;49.108;8.280;2023-04-26T10:37:14;100658.63;;;12.88;41.73
79639;BME280;69114;49.108;8.280;2023-04-26T10:39:44;100658.81;;;12.24;40.43
79639;BME280;69114;49.108;8.280;2023-04-26T10:42:28;100657.56;;;12.53;44.26
79639;BME280;69114;49.108;8.280;2023-04-26T10:45:00;100652.44;;;12.10;44.00
79639;BME280;69114;49.108;8.280;2023-04-26T10:47:42;100652.09;;;12.25;45.36
79639;BME280;69114;49.108;8.280;2023-04-26T10:50:09;100653.00;;;11.98;43.16
79639;BME280;69114;49.108;8.280;2023-04-26T10:52:37;100645.44;;;12.35;44.52
79639;BME280;69114;49.108;8.280;2023-04-26T10:55:03;100634.19;;;12.71;41.50
79639;BME280;69114;49.108;8.280;2023-04-26T10:57:49;100634.38;;;12.52;34.67
79639;BME280;69114;49.108;8.280;2023-04-26T11:00:26;100640.78;;;12.53;37.88
79639;BME280;69114;49.108;8.280;2023-04-26T11:03:03;100627.84;;;12.35;38.29
79639;BME280;69114;49.108;8.280;2023-04-26T11:08:16;100617.69;;;12.92;40.16
79639;BME280;69114;49.108;8.280;2023-04-26T11:10:50;100617.69;;;12.92;38.11
79639;BME280;69114;49.108;8.280;2023-04-26T11:13:18;100601.97;;;12.74;37.57
79639;BME280;69114;49.108;8.280;2023-04-26T11:15:44;100605.63;;;13.14;38.11
79639;BME280;69114;49.108;8.280;2023-04-26T11:18:10;100602.97;;;13.09;38.64
79639;BME280;69114;49.108;8.280;2023-04-26T11:20:35;100613.44;;;14.26;38.88
79639;BME280;69114;49.108;8.280;2023-04-26T11:23:01;100604.84;;;14.66;35.24
79639;BME280;69114;49.108;8.280;2023-04-26T11:25:27;100592.94;;;14.78;34.29
79639;BME280;69114;49.108;8.280;2023-04-26T11:28:00;100595.78;;;15.46;33.11
79639;BME280;69114;49.108;8.280;2023-04-26T11:30:30;100589.72;;;15.44;31.86
79639;BME280;69114;49.108;8.280;2023-04-26T11:32:59;100580.31;;;15.40;31.58
79639;BME280;69114;49.108;8.280;2023-04-26T11:35:25;100590.53;;;15.06;31.27
79639;BME280;69114;49.108;8.280;2023-04-26T11:37:51;100591.84;;;14.27;33.12
79639;BME280;69114;49.108;8.280;2023-04-26T11:40:17;100577.22;;;14.85;31.41
79639;BME280;69114;49.108;8.280;2023-04-26T11:42:44;100584.84;;;15.23;29.48
79639;BME280;69114;49.108;8.280;2023-04-26T11:45:10;100589.03;;;14.35;30.69
79639;BME280;69114;49.108;8.280;2023-04-26T11:47:36;100581.78;;;15.96;31.81
79639;BME280;69114;49.108;8.280;2023-04-26T11:50:01;100579.78;;;15.97;27.72
79639;BME280;69114;49.108;8.280;2023-04-26T11:52:28;100584.91;;;16.36;28.83
79639;BME280;69114;49.108;8.280;2023-04-26T11:55:04;100577.44;;;15.19;34.43
79639;BME280;69114;49.108;8.280;2023-04-26T11:57:33;100567.81;;;15.28;33.26
79639;BME280;69114;49.108;8.280;2023-04-26T12:00:12;100573.78;;;15.27;33.75
79639;BME280;69114;49.108;8.280;2023-04-26T12:02:48;100571.91;;;16.11;32.17
79639;BME280;69114;49.108;8.280;2023-04-26T12:05:24;100579.41;;;14.71;31.86
79639;BME280;69114;49.108;8.280;2023-04-26T12:07:55;100578.03;;;15.33;30.13
79639;BME280;69114;49.108;8.280;2023-04-26T12:10:30;100567.66;;;15.84;29.61
79639;BME280;69114;49.108;8.280;2023-04-26T12:12:58;100564.56;;;16.52;29.81
79639;BME280;69114;49.108;8.280;2023-04-26T12:15:30;100568.53;;;15.46;30.45
79639;BME280;69114;49.108;8.280;2023-04-26T12:18:05;100568.69;;;15.50;29.23
79639;BME280;69114;49.108;8.280;2023-04-26T12:20:34;100573.00;;;15.98;28.70
79639;BME280;69114;49.108;8.280;2023-04-26T12:25:26;100559.69;;;18.36;27.23
79639;BME280;69114;49.108;8.280;2023-04-26T12:27:52;100559.28;;;16.83;27.88
79639;BME280;69114;49.108;8.280;2023-04-26T12:30:17;100560.59;;;15.99;29.12
79639;BME280;69114;49.108;8.280;2023-04-26T12:32:43;100553.91;;;17.03;30.40
79639;BME280;69114;49.108;8.280;2023-04-26T12:35:08;100555.28;;;14.96;30.78
79639;BME280;69114;49.108;8.280;2023-04-26T12:37:33;100551.91;;;14.47;31.47
79639;BME280;69114;49.108;8.280;2023-04-26T12:39:59;100556.56;;;14.99;33.56
79639;BME280;69114;49.108;8.280;2023-04-26T12:42:25;100559.31;;;15.16;31.11
79639;BME280;69114;49.108;8.280;2023-04-26T12:44:50;100558.53;;;15.66;30.09
79639;BME280;69114;49.108;8.280;2023-04-26T12:47:16;100561.56;;;16.69;30.89
79639;BME280;69114;49.108;8.280;2023-04-26T12:49:42;100548.53;;;17.22;27.41
79639;BME280;69114;49.108;8.280;2023-04-26T12:52:07;100558.38;;;17.40;27.15
79639;BME280;69114;49.108;8.280;2023-04-26T12:54:32;100558.03;;;17.54;25.88
79639;BME280;69114;49.108;8.280;2023-04-26T12:56:58;100557.44;;;18.41;26.68
79639;BME280;69114;49.108;8.280;2023-04-26T12:59:27;100563.94;;;19.02;25.00
79639;BME280;69114;49.108;8.280;2023-04-26T13:01:52;100558.97;;;18.11;24.43
79639;BME280;69114;49.108;8.280;2023-04-26T13:04:17;100542.25;;;17.65;25.44
79639;BME280;69114;49.108;8.280;2023-04-26T13:06:42;100545.06;;;18.18;25.78